Time;durP1;ratioP1;P1;durP2;ratioP2;P2;SDS_P1;SDS_P2;PMS_P1;PMS_P2;Temp;Humidity;BMP_temperature;BMP_pressure;BME280_temperature;BME280_humidity;BME280_pressure;Samples;Min_cycle;Max_cycle;Signal;HPM_P1;HPM_P2
2022/04/11 00:01:18;;;;;;;13.27;5.50;;;;;;;-0.15;100.00;99199.34;5009808;28;20479;-67
2022/04/11 00:03:43;;;;;;;10.40;5.45;;;;;;;-0.19;100.00;99194.41;4987629;28;20026;-67
2022/04/11 00:06:08;;;;;;;10.45;5.10;;;;;;;-0.33;100.00;99191.06;5007210;28;20038;-67
2022/04/11 00:08:33;;;;;;;9.77;5.22;;;;;;;-0.24;100.00;99200.09;5007639;28;20030;-66
2022/04/11 00:10:59;;;;;;;9.70;5.07;;;;;;;-0.30;100.00;99212.06;5007548;28;20026;-66
2022/04/11 00:13:24;;;;;;;12.27;5.38;;;;;;;-0.35;100.00;99216.91;4988145;28;20034;-67
2022/04/11 00:15:50;;;;;;;10.18;5.53;;;;;;;-0.41;100.00;99204.13;5000613;28;20068;-66
2022/04/11 00:18:15;;;;;;;11.43;5.20;;;;;;;-0.47;100.00;99192.19;4998088;28;20087;-66
2022/04/11 00:20:40;;;;;;;8.80;5.15;;;;;;;-0.46;100.00;99217.78;4986455;28;20057;-66
2022/04/11 00:23:06;;;;;;;9.07;5.10;;;;;;;-0.54;100.00;99204.28;4985974;28;20057;-66
2022/04/11 00:25:31;;;;;;;12.25;4.72;;;;;;;-0.46;100.00;99206.31;5004931;28;20021;-67
2022/04/11 00:27:57;;;;;;;7.65;4.63;;;;;;;-0.46;100.00;99214.28;5011796;28;20025;-67
2022/04/11 00:30:22;;;;;;;11.20;4.78;;;;;;;-0.49;100.00;99195.94;5001172;28;20027;-66
2022/04/11 00:32:47;;;;;;;8.07;4.57;;;;;;;-0.46;100.00;99201.84;5003444;28;21234;-66
2022/04/11 00:35:13;;;;;;;8.65;4.45;;;;;;;-0.39;100.00;99199.53;5007280;28;20018;-67
2022/04/11 00:37:39;;;;;;;7.28;4.20;;;;;;;-0.55;100.00;99194.63;4986371;28;20423;-67
2022/04/11 00:40:06;;;;;;;9.45;4.93;;;;;;;-0.53;100.00;99190.00;4996738;28;20038;-67
2022/04/11 00:42:32;;;;;;;7.53;4.03;;;;;;;-0.43;100.00;99191.94;4998457;28;20037;-67
2022/04/11 00:45:01;;;;;;;5.72;3.63;;;;;;;-0.56;100.00;99186.75;5012944;28;20029;-67
2022/04/11 00:47:26;;;;;;;;;;;;;;;-0.60;100.00;99187.97;5004764;28;20472;-66
2022/04/11 00:49:59;;;;;;;6.43;4.18;;;;;;;-0.68;100.00;99188.59;5008334;28;19968;-68
2022/04/11 00:52:26;;;;;;;10.73;4.68;;;;;;;-0.90;100.00;99146.94;4978601;28;20122;-68
2022/04/11 00:54:52;;;;;;;6.47;3.83;;;;;;;-0.91;100.00;99154.06;5007412;28;20021;-66
2022/04/11 00:57:18;;;;;;;6.25;3.80;;;;;;;-0.82;100.00;99176.41;4998588;28;20100;-67
2022/04/11 00:59:43;;;;;;;4.80;3.33;;;;;;;-0.77;100.00;99181.34;5005221;28;20018;-68
2022/04/11 01:02:09;;;;;;;8.15;3.45;;;;;;;-0.78;100.00;99169.88;5012251;28;20036;-68
2022/04/11 01:04:34;;;;;;;6.45;3.30;;;;;;;-0.65;100.00;99167.09;5006902;28;20027;-68
2022/04/11 01:06:59;;;;;;;8.27;3.45;;;;;;;-0.69;100.00;99169.13;5015016;28;20025;-68
2022/04/11 01:09:26;;;;;;;6.43;3.58;;;;;;;-0.68;100.00;99172.66;4998771;28;20503;-67
2022/04/11 01:11:52;;;;;;;11.10;3.70;;;;;;;-0.82;100.00;99151.66;4996119;28;20038;-67
2022/04/11 01:14:18;;;;;;;8.65;3.42;;;;;;;-0.97;100.00;99129.81;4999729;28;20061;-67
2022/04/11 01:16:51;;;;;;;6.22;3.55;;;;;;;-0.75;100.00;99172.28;5003376;28;20053;-67
2022/04/11 01:19:18;;;;;;;5.10;3.40;;;;;;;-0.94;100.00;99148.19;4998191;28;20555;-67
2022/04/11 01:21:47;;;;;;;7.93;3.90;;;;;;;-0.73;100.00;99173.03;5013547;28;20033;-66
2022/04/11 01:24:13;;;;;;;8.25;4.20;;;;;;;-0.74;100.00;99165.16;5002604;28;20112;-68
2022/04/11 01:26:39;;;;;;;11.15;6.25;;;;;;;-0.87;100.00;99159.97;5011353;28;20114;-68
2022/04/11 01:29:08;;;;;;;11.07;6.25;;;;;;;-0.75;100.00;99180.25;4998773;28;20037;-68
2022/04/11 01:31:34;;;;;;;13.68;5.88;;;;;;;-0.78;100.00;99183.16;5004031;28;20026;-68
2022/04/11 01:33:59;;;;;;;8.95;5.93;;;;;;;-0.92;100.00;99157.72;4999646;28;20049;-68
2022/04/11 01:36:24;;;;;;;10.30;5.35;;;;;;;-0.97;100.00;99156.34;5001038;28;20030;-68
2022/04/11 01:38:50;;;;;;;9.88;5.07;;;;;;;-0.78;100.00;99174.34;5007999;28;20039;-68
2022/04/11 01:41:16;;;;;;;9.90;5.32;;;;;;;-0.88;100.00;99159.13;5005645;28;20659;-68
2022/04/11 01:43:41;;;;;;;10.95;6.25;;;;;;;-0.80;100.00;99157.69;4986175;28;20476;-68
2022/04/11 01:46:07;;;;;;;11.95;6.25;;;;;;;-0.73;100.00;99170.38;5002139;28;20414;-68
2022/04/11 01:48:32;;;;;;;10.82;5.95;;;;;;;-0.59;100.00;99168.41;5007462;28;20029;-68
2022/04/11 01:50:57;;;;;;;8.90;5.22;;;;;;;-0.57;100.00;99171.78;4989038;28;20026;-66
2022/04/11 01:53:22;;;;;;;10.82;6.32;;;;;;;-0.57;100.00;99163.81;5002877;28;20483;-67
2022/04/11 01:55:48;;;;;;;10.68;5.97;;;;;;;-0.49;100.00;99164.03;5002440;28;20040;-67
2022/04/11 01:58:15;;;;;;;10.73;6.38;;;;;;;-0.44;100.00;99159.19;5012284;28;20030;-67
2022/04/11 02:00:41;;;;;;;8.80;6.10;;;;;;;-0.39;100.00;99151.69;5001803;28;20022;-68
2022/04/11 02:03:08;;;;;;;10.70;6.53;;;;;;;-0.36;100.00;99150.59;5004425;28;20590;-68
2022/04/11 02:05:34;;;;;;;8.98;5.72;;;;;;;-0.53;100.00;99118.25;4997351;28;20030;-68
2022/04/11 02:08:00;;;;;;;10.82;5.93;;;;;;;-0.41;100.00;99115.56;5009156;28;20030;-68
2022/04/11 02:10:27;;;;;;;13.30;6.18;;;;;;;-0.27;100.00;99149.84;5005989;28;20054;-68
2022/04/11 02:12:54;;;;;;;10.30;5.65;;;;;;;-0.30;100.00;99144.78;5006838;28;20034;-68
2022/04/11 02:15:20;;;;;;;10.18;5.88;;;;;;;-0.24;100.00;99147.78;5004967;28;20487;-68
2022/04/11 02:17:48;;;;;;;7.90;5.28;;;;;;;-0.41;100.00;99110.25;5005080;28;20032;-68
2022/04/11 02:20:14;;;;;;;9.50;4.68;;;;;;;-0.27;100.00;99156.00;4999525;28;20053;-67
2022/04/11 02:22:48;;;;;;;10.45;4.80;;;;;;;-0.27;100.00;99145.34;5007731;28;20030;-67
2022/04/11 02:25:14;;;;;;;9.73;5.63;;;;;;;-0.26;100.00;99139.09;4984436;28;20121;-67
2022/04/11 02:27:39;;;;;;;11.10;5.22;;;;;;;-0.17;100.00;99131.31;5004626;28;20049;-67
2022/04/11 02:30:06;;;;;;;9.48;4.97;;;;;;;-0.16;100.00;99125.84;5006384;28;20443;-68
2022/04/11 02:32:31;;;;;;;7.18;4.80;;;;;;;-0.23;100.00;99138.81;5008049;28;20085;-68
2022/04/11 02:34:57;;;;;;;8.38;5.53;;;;;;;-0.31;100.00;99114.69;4995059;28;20030;-68
2022/04/11 02:37:22;;;;;;;10.45;6.00;;;;;;;-0.20;100.00;99128.91;5007326;28;20108;-68
2022/04/11 02:39:47;;;;;;;7.25;4.72;;;;;;;-0.38;100.00;99099.38;5010219;28;20439;-68
2022/04/11 02:42:26;;;;;;;10.18;4.68;;;;;;;-0.28;100.00;99108.28;5005452;28;20033;-68
2022/04/11 02:44:52;;;;;;;9.60;4.50;;;;;;;-0.23;100.00;99109.56;5002484;28;20034;-67
2022/04/11 02:47:18;;;;;;;6.60;3.70;;;;;;;-0.22;100.00;99102.44;5008571;28;20049;-66
2022/04/11 02:49:44;;;;;;;8.20;4.22;;;;;;;-0.22;100.00;99099.78;5007756;28;20385;-68
2022/04/11 02:52:09;;;;;;;5.72;3.85;;;;;;;-0.14;100.00;99093.81;5003157;28;20038;-66
2022/04/11 02:54:36;;;;;;;7.65;3.78;;;;;;;-0.19;100.00;99078.25;5000239;28;20395;-67
2022/04/11 02:57:01;;;;;;;6.97;3.60;;;;;;;-0.11;100.00;99082.94;4991270;28;20041;-67
2022/04/11 02:59:26;;;;;;;6.93;3.97;;;;;;;-0.16;100.00;99075.31;5007835;28;20021;-67
2022/04/11 03:01:52;;;;;;;7.65;3.22;;;;;;;-0.12;100.00;99071.44;4982940;28;20026;-68
2022/04/11 03:04:17;;;;;;;7.30;3.72;;;;;;;-0.10;100.00;99069.50;5009683;28;20100;-68
2022/04/11 03:06:43;;;;;;;6.05;3.25;;;;;;;-0.04;100.00;99065.50;5011132;28;20026;-68
2022/04/11 03:09:08;;;;;;;9.52;4.80;;;;;;;-0.07;100.00;99068.41;5004513;28;20025;-68
2022/04/11 03:11:34;;;;;;;8.52;5.53;;;;;;;-0.08;100.00;99066.72;4990501;28;20687;-68
2022/04/11 03:14:00;;;;;;;9.43;5.57;;;;;;;-0.18;100.00;99044.53;4994701;28;20041;-68
2022/04/11 03:16:25;;;;;;;8.60;4.95;;;;;;;-0.25;100.00;99039.72;4995642;28;20042;-67
2022/04/11 03:18:51;;;;;;;10.23;5.35;;;;;;;-0.14;100.00;99057.44;5006683;28;20058;-68
2022/04/11 03:21:16;;;;;;;9.50;5.43;;;;;;;-0.17;100.00;99051.53;5003345;28;20061;-66
2022/04/11 03:23:41;;;;;;;9.07;5.57;;;;;;;-0.16;100.00;99038.09;5003848;28;20129;-67
2022/04/11 03:26:07;;;;;;;12.20;6.57;;;;;;;-0.27;100.00;99027.53;5004471;28;20483;-67
2022/04/11 03:28:32;;;;;;;9.27;5.15;;;;;;;-0.22;100.00;99038.63;5004100;28;20495;-66
2022/04/11 03:30:59;;;;;;;10.07;5.90;;;;;;;-0.17;100.00;99040.91;4984527;28;20030;-67
2022/04/11 03:33:24;;;;;;;8.35;5.30;;;;;;;-0.04;100.00;99046.88;4990671;28;20377;-66
2022/04/11 03:35:49;;;;;;;8.10;4.95;;;;;;;-0.08;100.00;99042.78;5012196;28;20037;-67
2022/04/11 03:38:14;;;;;;;9.30;5.28;;;;;;;-0.06;100.00;99048.81;4988057;28;20026;-67
2022/04/11 03:40:40;;;;;;;10.50;5.40;;;;;;;-0.26;100.00;99016.78;5000482;28;20014;-67
2022/04/11 03:43:05;;;;;;;8.52;5.75;;;;;;;-0.08;100.00;99051.63;5001470;28;20054;-66
2022/04/11 03:45:30;;;;;;;8.82;5.20;;;;;;;-0.05;100.00;99045.19;5003354;28;20030;-67
2022/04/11 03:47:55;;;;;;;10.40;5.05;;;;;;;-0.15;100.00;99028.34;4999137;28;20109;-76
2022/04/11 03:50:21;;;;;;;9.57;5.00;;;;;;;-0.04;100.00;99025.59;4987581;28;20022;-73
2022/04/11 03:52:46;;;;;;;7.75;4.75;;;;;;;-0.09;100.00;99015.34;4992977;28;20451;-72
2022/04/11 03:55:12;;;;;;;7.97;4.85;;;;;;;-0.01;100.00;99026.16;4982936;28;20030;-72
2022/04/11 03:57:37;;;;;;;9.88;4.63;;;;;;;0.13;100.00;99043.63;5008528;28;20037;-74
2022/04/11 04:00:04;;;;;;;7.13;4.32;;;;;;;0.12;100.00;99041.09;5001401;28;20101;-75
2022/04/11 04:02:30;;;;;;;8.82;4.55;;;;;;;-0.17;100.00;98990.38;4995587;28;20022;-72
2022/04/11 04:04:55;;;;;;;6.85;3.88;;;;;;;0.17;100.00;99045.03;5003251;28;20033;-73
2022/04/11 04:07:20;;;;;;;10.65;4.53;;;;;;;0.14;100.00;99045.31;5003567;28;20030;-71
2022/04/11 04:09:46;;;;;;;6.32;4.15;;;;;;;-0.03;100.00;99014.84;4987614;28;20025;-72
2022/04/11 04:12:11;;;;;;;9.18;4.18;;;;;;;0.14;100.00;99024.03;5011216;28;20033;-72
2022/04/11 04:14:37;;;;;;;8.18;4.43;;;;;;;0.32;100.00;99042.06;4992810;28;20025;-73
2022/04/11 04:17:02;;;;;;;9.02;4.10;;;;;;;0.17;100.00;99044.19;4995346;28;20028;-74
2022/04/11 04:19:28;;;;;;;9.20;4.05;;;;;;;0.11;100.00;99036.75;5006150;28;20677;-71
2022/04/11 04:21:53;;;;;;;8.63;3.90;;;;;;;0.15;100.00;99030.19;4998201;28;20037;-72
2022/04/11 04:24:22;;;;;;;8.27;4.35;;;;;;;0.00;100.00;99005.75;4993953;28;20364;-71
2022/04/11 04:26:48;;;;;;;4.45;3.65;;;;;;;0.10;100.00;99027.06;5008363;28;20097;-71
2022/04/11 04:29:15;;;;;;;7.43;4.32;;;;;;;-0.09;100.00;98996.72;5006612;28;20038;-73
2022/04/11 04:31:40;;;;;;;9.10;4.35;;;;;;;0.22;100.00;99029.53;4987955;28;20030;-74
2022/04/11 04:34:06;;;;;;;7.97;4.43;;;;;;;0.07;100.00;99022.00;5013240;28;20085;-72
2022/04/11 04:36:32;;;;;;;9.88;4.82;;;;;;;-0.17;100.00;98982.41;5013605;28;20022;-73
2022/04/11 04:38:57;;;;;;;7.68;4.68;;;;;;;0.00;100.00;99005.75;4992942;28;20045;-72
2022/04/11 04:41:23;;;;;;;10.57;5.18;;;;;;;-0.16;100.00;98994.72;4982081;28;20091;-73
2022/04/11 04:43:48;;;;;;;13.73;5.88;;;;;;;-0.15;100.00;98991.94;5002243;28;20026;-71
2022/04/11 04:46:13;;;;;;;10.27;5.30;;;;;;;-0.26;100.00;98989.38;5004514;28;20029;-71
2022/04/11 04:48:38;;;;;;;9.15;5.05;;;;;;;-0.25;100.00;98991.88;5010971;28;20080;-74
2022/04/11 04:51:04;;;;;;;10.68;5.65;;;;;;;-0.30;100.00;98978.13;4996469;28;20029;-75
2022/04/11 04:53:29;;;;;;;11.05;5.20;;;;;;;-0.28;100.00;98985.97;4994603;28;20026;-72
2022/04/11 04:55:55;;;;;;;8.60;4.85;;;;;;;-0.18;100.00;99007.28;5017108;28;20017;-70
2022/04/11 04:58:20;;;;;;;7.07;4.65;;;;;;;0.06;100.00;99015.84;5002678;28;20046;-71
2022/04/11 05:00:45;;;;;;;7.55;4.40;;;;;;;0.02;100.00;98995.81;5003714;28;20003;-73
2022/04/11 05:03:11;;;;;;;9.23;4.43;;;;;;;0.19;100.00;99016.50;5006778;28;20018;-75
2022/04/11 05:05:36;;;;;;;7.55;4.68;;;;;;;0.22;100.00;99015.38;5023824;28;20567;-69
2022/04/11 05:08:02;;;;;;;15.90;4.72;;;;;;;0.26;100.00;99016.78;5012800;28;20022;-68
2022/04/11 05:10:27;;;;;;;10.55;4.85;;;;;;;0.22;100.00;99016.22;5003165;28;20061;-69
2022/04/11 05:12:53;;;;;;;8.38;4.68;;;;;;;0.29;100.00;99021.00;5000122;28;20046;-70
2022/04/11 05:15:18;;;;;;;7.72;4.43;;;;;;;0.21;100.00;99017.22;4985148;28;20035;-70
2022/04/11 05:17:43;;;;;;;8.40;5.00;;;;;;;0.10;100.00;99006.63;4994428;28;20030;-72
2022/04/11 05:20:10;;;;;;;7.60;4.82;;;;;;;0.05;100.00;99000.00;5012682;28;20037;-73
2022/04/11 05:22:36;;;;;;;9.23;4.88;;;;;;;0.16;100.00;99010.59;4996467;28;20567;-73
2022/04/11 05:25:01;;;;;;;8.20;4.57;;;;;;;0.23;100.00;99011.72;5000724;28;20034;-70
2022/04/11 05:27:26;;;;;;;9.13;4.95;;;;;;;0.26;100.00;99005.31;5006771;28;20103;-71
2022/04/11 05:29:52;;;;;;;7.30;4.60;;;;;;;0.39;100.00;99016.56;5014060;28;20033;-71
2022/04/11 05:32:17;;;;;;;8.93;3.95;;;;;;;0.41;100.00;99004.81;4997345;28;21043;-71
2022/04/11 05:34:42;;;;;;;6.72;3.97;;;;;;;0.42;100.00;98979.91;4993455;28;20148;-71
2022/04/11 05:37:08;;;;;;;6.80;3.00;;;;;;;0.68;100.00;98992.72;5012366;28;20057;-74
2022/04/11 05:39:33;;;;;;;8.70;3.42;;;;;;;0.87;100.00;98991.94;4992423;28;20468;-73
2022/04/11 05:41:58;;;;;;;4.70;3.10;;;;;;;1.15;100.00;99013.41;4998805;28;20089;-74
2022/04/11 05:44:24;;;;;;;6.93;3.30;;;;;;;1.80;99.67;98981.69;4991800;28;20060;-73
2022/04/11 05:46:52;;;;;;;8.63;3.58;;;;;;;4.10;86.08;98992.09;5016823;28;20030;-74
2022/04/11 05:49:22;;;;;;;5.55;3.13;;;;;;;6.48;72.05;98965.69;4998467;28;20045;-73
2022/04/11 05:51:47;;;;;;;5.35;2.30;;;;;;;8.52;63.46;99001.97;4994857;28;20038;-70
2022/04/11 05:54:13;;;;;;;7.80;2.47;;;;;;;8.82;58.02;98939.91;4989255;28;20076;-71
2022/04/11 05:56:38;;;;;;;5.57;2.28;;;;;;;10.44;52.89;99001.53;4995845;28;20017;-71
2022/04/11 05:59:04;;;;;;;3.25;1.90;;;;;;;10.99;50.76;98994.34;5010218;28;20036;-71
2022/04/11 06:01:30;;;;;;;6.43;2.58;;;;;;;12.37;48.80;98985.88;5015139;28;20066;-71
2022/04/11 06:03:55;;;;;;;3.55;2.38;;;;;;;12.64;46.83;98967.66;5010927;28;20032;-69
2022/04/11 06:06:21;;;;;;;4.65;2.28;;;;;;;13.84;43.74;98986.16;5010756;28;20029;-68
2022/04/11 06:08:46;;;;;;;5.47;2.88;;;;;;;14.07;42.29;98989.13;4992434;28;20022;-69
2022/04/11 06:11:12;;;;;;;6.35;3.05;;;;;;;14.68;41.36;98990.25;5012210;28;20026;-70
2022/04/11 06:13:40;;;;;;;10.52;2.58;;;;;;;15.94;38.97;98988.66;5007485;28;20100;-70
2022/04/11 06:16:06;;;;;;;4.60;2.15;;;;;;;15.88;37.66;98970.50;4993902;28;20167;-69
2022/04/11 06:18:31;;;;;;;4.30;2.50;;;;;;;16.73;36.81;98993.81;5005153;28;20093;-69
2022/04/11 06:20:56;;;;;;;6.30;2.33;;;;;;;16.10;37.19;98956.28;5012642;28;20022;-72
2022/04/11 06:23:22;;;;;;;4.65;2.40;;;;;;;17.58;34.84;98994.25;5009952;28;20488;-70
2022/04/11 06:25:47;;;;;;;3.17;1.85;;;;;;;18.13;34.66;98980.78;5005738;28;20034;-71
2022/04/11 06:28:12;;;;;;;5.10;2.40;;;;;;;18.02;35.09;98986.31;5009141;28;20084;-70
2022/04/11 06:30:38;;;;;;;4.72;2.40;;;;;;;16.58;36.54;99004.41;5008608;28;20028;-71
2022/04/11 06:33:03;;;;;;;5.15;2.63;;;;;;;16.65;36.87;99000.47;5014150;28;20030;-73
2022/04/11 06:35:29;;;;;;;5.93;2.60;;;;;;;16.81;35.93;98998.94;5011766;28;20026;-73
2022/04/11 06:37:54;;;;;;;6.00;2.63;;;;;;;17.34;35.19;99004.44;5013729;28;20040;-70
2022/04/11 06:40:19;;;;;;;5.45;2.55;;;;;;;17.69;35.04;99007.88;4997108;28;20041;-72
2022/04/11 06:42:45;;;;;;;4.47;2.35;;;;;;;17.67;33.99;99012.75;4987721;28;20105;-71
2022/04/11 06:45:10;;;;;;;2.50;2.00;;;;;;;17.92;33.63;99004.25;5008759;28;20083;-71
2022/04/11 06:47:35;;;;;;;5.53;2.35;;;;;;;18.46;32.99;99011.16;5004088;28;20104;-72
2022/04/11 06:50:00;;;;;;;3.65;2.42;;;;;;;20.60;31.17;99003.84;5000808;28;20030;-71
2022/04/11 06:52:26;;;;;;;5.63;2.40;;;;;;;21.35;29.03;98999.00;5007891;28;20033;-71
2022/04/11 06:54:51;;;;;;;6.25;2.40;;;;;;;21.63;29.47;98989.50;4996100;28;20029;-71
2022/04/11 06:57:16;;;;;;;7.30;2.45;;;;;;;21.71;29.62;98997.22;4999530;28;20038;-71
2022/04/11 06:59:42;;;;;;;3.78;2.28;;;;;;;21.43;29.02;98988.34;4995165;28;20022;-70
2022/04/11 07:02:07;;;;;;;5.50;1.95;;;;;;;21.80;29.19;98970.00;5009380;28;20025;-70
2022/04/11 07:04:32;;;;;;;3.47;2.00;;;;;;;22.18;29.00;98993.44;5007445;28;20026;-70
2022/04/11 07:06:58;;;;;;;5.40;2.40;;;;;;;23.48;27.41;98984.69;5000987;28;20026;-70
2022/04/11 07:09:23;;;;;;;5.20;2.28;;;;;;;23.59;25.90;98989.88;5006506;28;20025;-74
2022/04/11 07:11:48;;;;;;;5.28;2.63;;;;;;;23.28;26.67;98972.63;5009958;28;20033;-73
2022/04/11 07:14:14;;;;;;;4.10;2.47;;;;;;;23.80;25.03;98990.59;5010942;28;20060;-74
2022/04/11 07:16:39;;;;;;;4.75;2.38;;;;;;;23.77;25.55;98974.59;4998091;28;20435;-74
2022/04/11 07:19:06;;;;;;;6.18;2.35;;;;;;;20.84;27.82;98996.84;4989382;28;20030;-70
2022/04/11 07:21:32;;;;;;;4.82;2.22;;;;;;;21.09;26.96;98993.41;5002904;28;20029;-70
2022/04/11 07:23:57;;;;;;;5.97;2.05;;;;;;;19.02;28.69;98992.81;5010812;28;20049;-70
2022/04/11 07:26:22;;;;;;;6.07;2.42;;;;;;;18.12;30.25;98979.09;5009499;28;20032;-70
2022/04/11 07:28:47;;;;;;;5.38;2.15;;;;;;;18.27;30.44;98981.28;4994343;28;20030;-70
2022/04/11 07:31:13;;;;;;;4.38;2.30;;;;;;;18.08;29.73;98947.84;5009812;28;20021;-70
2022/04/11 07:33:38;;;;;;;4.07;2.17;;;;;;;18.36;29.79;98951.56;5001694;28;20095;-69
2022/04/11 07:36:04;;;;;;;5.18;1.90;;;;;;;18.18;30.68;98966.31;5011979;28;20059;-70
2022/04/11 07:38:29;;;;;;;5.15;2.00;;;;;;;18.36;29.91;98979.75;5017944;28;20018;-70
2022/04/11 07:40:55;;;;;;;5.15;2.20;;;;;;;18.87;29.57;98952.31;5029342;28;20025;-70
2022/04/11 07:43:21;;;;;;;5.47;2.00;;;;;;;19.01;29.56;98971.97;5028685;28;20036;-70
2022/04/11 07:45:48;;;;;;;6.20;1.80;;;;;;;18.06;30.77;98971.06;5029703;28;20480;-70
2022/04/11 07:48:14;;;;;;;3.75;2.03;;;;;;;17.56;30.75;98963.59;5023764;28;20026;-71
2022/04/11 07:50:39;;;;;;;3.92;2.08;;;;;;;15.69;33.92;98982.53;5023470;28;20081;-73
2022/04/11 07:53:06;;;;;;;4.65;1.63;;;;;;;15.75;33.25;98982.44;5025216;28;20041;-72
2022/04/11 07:55:33;;;;;;;4.72;1.95;;;;;;;15.06;34.83;98968.25;5025776;28;20026;-73
2022/04/11 07:57:59;;;;;;;4.97;2.10;;;;;;;15.59;34.32;98938.59;5000334;28;20026;-72
2022/04/11 08:00:25;;;;;;;5.35;2.13;;;;;;;16.23;33.99;98964.25;5011399;28;20095;-72
2022/04/11 08:02:55;;;;;;;4.68;2.40;;;;;;;16.74;33.18;98973.66;4994243;28;20037;-72
2022/04/11 08:05:22;;;;;;;5.90;2.30;;;;;;;15.54;34.04;98981.03;4998113;28;20474;-74
2022/04/11 08:07:48;;;;;;;3.63;2.10;;;;;;;14.99;35.53;98986.56;5004973;28;20047;-73
2022/04/11 08:10:16;;;;;;;3.95;2.13;;;;;;;15.46;35.04;98984.09;5010496;28;20057;-74
2022/04/11 08:12:57;;;;;;;4.72;2.10;;;;;;;17.31;32.75;98975.69;5013506;28;20034;-72
2022/04/11 08:15:24;;;;;;;8.07;2.15;;;;;;;17.98;30.91;98969.56;5013543;28;20065;-72
2022/04/11 08:17:49;;;;;;;4.03;1.90;;;;;;;18.76;30.36;98969.72;5011548;28;20104;-73
2022/04/11 08:20:15;;;;;;;3.45;1.70;;;;;;;18.67;30.50;98957.50;4992127;28;20069;-71
2022/04/11 08:22:40;;;;;;;3.38;1.92;;;;;;;18.65;29.92;98963.22;5007322;28;20034;-72
2022/04/11 08:25:06;;;;;;;3.97;1.85;;;;;;;17.82;30.57;98967.66;5014255;28;20061;-70
2022/04/11 08:27:31;;;;;;;5.05;1.90;;;;;;;17.64;31.08;98960.44;5022405;28;20041;-74
2022/04/11 08:29:57;;;;;;;4.15;2.08;;;;;;;17.80;30.56;98980.75;5014273;28;20045;-72
2022/04/11 08:32:22;;;;;;;3.80;2.10;;;;;;;18.43;30.40;98944.00;5018202;28;20056;-75
2022/04/11 08:34:47;;;;;;;5.63;1.80;;;;;;;19.94;28.58;98947.22;5032484;28;20021;-76
2022/04/11 08:37:13;;;;;;;3.20;1.52;;;;;;;19.36;28.76;98955.13;5024115;28;20045;-75
2022/04/11 08:39:38;;;;;;;5.93;1.88;;;;;;;20.04;28.05;98946.47;5000619;28;20041;-67
2022/04/11 08:42:04;;;;;;;8.32;1.77;;;;;;;19.76;28.09;98959.41;5026297;28;20037;-67
2022/04/11 08:44:31;;;;;;;3.40;1.75;;;;;;;19.70;27.65;98954.94;5021349;28;20052;-66
2022/04/11 08:47:02;;;;;;;2.45;1.33;;;;;;;20.00;27.54;98962.66;5024856;28;20049;-66
2022/04/11 08:49:29;;;;;;;2.78;1.38;;;;;;;20.63;26.90;98957.38;5019334;28;20082;-67
2022/04/11 08:51:55;;;;;;;3.92;1.88;;;;;;;19.49;27.59;98962.09;5015297;28;20408;-67
2022/04/11 08:54:20;;;;;;;3.67;1.42;;;;;;;19.52;28.04;98964.34;5005664;28;20040;-66
2022/04/11 08:56:45;;;;;;;2.95;1.58;;;;;;;19.05;27.48;98971.22;5005240;28;20033;-67
2022/04/11 08:59:11;;;;;;;6.05;1.20;;;;;;;20.24;26.49;98960.38;5013869;28;20237;-66
2022/04/11 09:01:36;;;;;;;3.58;1.80;;;;;;;20.86;25.73;98955.34;5007160;28;20476;-66
2022/04/11 09:04:02;;;;;;;3.05;1.30;;;;;;;20.31;26.57;98930.75;5006661;28;20545;-67
2022/04/11 09:06:31;;;;;;;3.58;1.27;;;;;;;19.89;26.54;98953.50;5006536;28;20431;-66
2022/04/11 09:08:58;;;;;;;4.75;1.50;;;;;;;20.21;26.86;98960.09;5003935;28;20069;-66
2022/04/11 09:11:28;;;;;;;2.17;1.50;;;;;;;19.84;27.23;98950.72;5002219;28;20028;-67
2022/04/11 09:13:53;;;;;;;3.35;1.17;;;;;;;20.52;25.86;98925.41;5004133;28;20061;-66
2022/04/11 09:16:19;;;;;;;3.03;1.20;;;;;;;19.73;26.63;98943.47;4989208;28;20167;-66
2022/04/11 09:18:49;;;;;;;2.85;1.40;;;;;;;20.12;25.82;98945.97;4998675;28;20068;-66
2022/04/11 09:21:16;;;;;;;3.20;1.40;;;;;;;20.20;26.23;98912.56;4993512;28;20026;-66
2022/04/11 09:23:42;;;;;;;3.95;1.50;;;;;;;19.31;27.40;98944.09;5005020;28;20036;-67
2022/04/11 09:26:19;;;;;;;2.90;1.15;;;;;;;19.68;26.12;98916.78;5009206;28;20041;-66
2022/04/11 09:28:44;;;;;;;2.40;1.10;;;;;;;20.68;25.65;98935.44;5002943;28;20037;-68
2022/04/11 09:31:09;;;;;;;2.65;1.08;;;;;;;21.54;24.72;98923.16;5005831;28;20041;-68
2022/04/11 09:33:39;;;;;;;5.47;1.23;;;;;;;22.43;24.11;98933.94;4983007;28;20432;-68
2022/04/11 09:36:05;;;;;;;4.03;1.50;;;;;;;22.13;23.31;98929.25;5004212;28;20037;-67
2022/04/11 09:38:37;;;;;;;5.97;1.40;;;;;;;21.96;24.21;98918.50;5009390;28;20129;-67
2022/04/11 09:41:03;;;;;;;4.47;1.50;;;;;;;21.18;24.40;98912.00;5001552;28;20031;-67
2022/04/11 09:43:33;;;;;;;2.05;1.20;;;;;;;20.89;25.24;98910.78;5008738;28;20033;-67
2022/04/11 09:46:02;;;;;;;3.08;1.10;;;;;;;21.41;24.57;98923.66;5004236;28;20685;-67
2022/04/11 09:48:30;;;;;;;3.03;1.33;;;;;;;21.85;24.55;98912.16;4993806;28;20034;-67
2022/04/11 09:50:59;;;;;;;4.70;1.40;;;;;;;22.24;24.00;98914.38;4991960;28;20161;-67
2022/04/11 09:53:30;;;;;;;3.33;1.17;;;;;;;23.63;23.12;98910.00;4996993;28;20089;-67
2022/04/11 09:55:55;;;;;;;3.38;1.67;;;;;;;23.74;22.13;98902.53;4997399;28;20037;-67
2022/04/11 09:58:23;;;;;;;2.03;1.25;;;;;;;23.33;23.22;98864.09;4998770;28;20098;-68
2022/04/11 10:00:51;;;;;;;1.95;1.30;;;;;;;22.78;23.08;98902.69;4992461;28;20022;-68
2022/04/11 10:03:19;;;;;;;5.75;1.00;;;;;;;21.84;22.92;98878.28;5003069;28;20029;-67
2022/04/11 10:05:45;;;;;;;2.22;1.02;;;;;;;21.57;23.08;98889.56;5005668;28;20076;-67
2022/04/11 10:08:12;;;;;;;3.60;1.15;;;;;;;21.71;23.15;98892.59;4984570;28;20124;-68
2022/04/11 10:10:39;;;;;;;2.78;1.08;;;;;;;22.61;22.86;98903.03;4999936;28;20083;-67
2022/04/11 10:13:11;;;;;;;3.72;1.38;;;;;;;21.60;22.97;98897.25;4995859;28;20034;-69
2022/04/11 10:15:38;;;;;;;2.33;1.25;;;;;;;20.75;24.21;98893.94;4994882;28;20038;-68
2022/04/11 10:18:04;;;;;;;3.25;1.80;;;;;;;20.83;24.24;98885.19;4997151;28;20022;-67
2022/04/11 10:20:36;;;;;;;1.98;1.00;;;;;;;20.73;23.77;98861.22;5001022;28;20495;-67
2022/04/11 10:23:10;;;;;;;2.13;1.10;;;;;;;21.22;23.20;98893.00;4999748;28;20026;-67
2022/04/11 10:25:49;;;;;;;5.40;1.30;;;;;;;22.15;22.92;98877.44;5000680;28;20030;-67
2022/04/11 10:28:19;;;;;;;;;;;;;;;21.56;22.45;98876.91;5005906;28;20029;-67
2022/04/11 10:31:03;;;;;;;2.47;1.00;;;;;;;20.91;24.09;98873.69;4999508;28;19917;-67
2022/04/11 10:33:49;;;;;;;4.00;1.40;;;;;;;20.29;24.42;98879.91;5014341;28;20037;-66
2022/04/11 10:36:35;;;;;;;3.55;1.15;;;;;;;19.73;25.58;98879.47;5001132;28;20567;-66
2022/04/11 10:39:15;;;;;;;2.38;1.05;;;;;;;19.93;25.27;98876.91;4997204;28;20641;-72
2022/04/11 10:41:58;;;;;;;2.65;1.20;;;;;;;20.60;24.76;98861.72;5010644;28;20482;-74
2022/04/11 10:44:29;;;;;;;5.93;1.92;;;;;;;22.00;24.23;98862.56;5011083;28;20077;-75
2022/04/11 10:47:10;;;;;;;3.38;1.23;;;;;;;23.83;21.97;98851.88;4997820;28;20044;-74
2022/04/11 10:49:44;;;;;;;3.90;1.15;;;;;;;23.61;22.17;98860.59;5014917;28;20479;-77
2022/04/11 10:52:29;;;;;;;2.65;1.30;;;;;;;23.00;21.55;98857.38;5013105;28;20030;-75
2022/04/11 10:54:57;;;;;;;4.25;2.08;;;;;;;23.48;21.60;98852.16;5013387;28;20030;-73
2022/04/11 10:57:35;;;;;;;2.05;1.00;;;;;;;23.06;21.30;98842.47;5012625;28;20498;-74
2022/04/11 11:00:13;;;;;;;3.17;1.27;;;;;;;22.23;22.30;98849.34;5007147;28;20026;-73
2022/04/11 11:02:48;;;;;;;4.10;1.30;;;;;;;21.92;21.73;98845.78;5014276;28;20033;-73
2022/04/11 11:05:43;;;;;;;3.47;0.93;;;;;;;22.36;22.33;98828.66;5013954;28;20741;-75
2022/04/11 11:08:12;;;;;;;1.98;1.30;;;;;;;23.73;21.22;98829.84;5011489;28;20083;-73
2022/04/11 11:10:57;;;;;;;2.77;1.03;;;;;;;24.35;20.63;98827.34;4993161;28;20018;-71
2022/04/11 11:13:34;;;;;;;1.10;0.85;;;;;;;24.47;20.69;98824.19;5008022;28;20285;-74
2022/04/11 11:16:14;;;;;;;1.63;0.80;;;;;;;24.40;20.71;98810.69;5013989;28;20029;-75
2022/04/11 11:18:51;;;;;;;3.58;0.98;;;;;;;24.54;19.13;98812.78;5023130;28;20124;-73
2022/04/11 11:21:32;;;;;;;3.13;1.10;;;;;;;23.69;20.21;98806.69;4994726;28;20030;-73
2022/04/11 11:24:03;;;;;;;1.60;0.80;;;;;;;24.30;19.91;98799.75;5010804;28;20056;-75
2022/04/11 11:26:38;;;;;;;2.42;0.95;;;;;;;24.64;19.66;98774.75;5016369;28;20061;-74
2022/04/11 11:29:23;;;;;;;1.98;1.00;;;;;;;23.80;20.59;98790.84;4987858;28;20025;-73